Time;durP1;ratioP1;P1;durP2;ratioP2;P2;SDS_P1;SDS_P2;PMS_P1;PMS_P2;Temp;Humidity;BMP_temperature;BMP_pressure;BME280_temperature;BME280_humidity;BME280_pressure;Samples;Min_cycle;Max_cycle;Signal;HPM_P1;HPM_P2
2022/04/22 00:00:38;;;;;;;;;;;16.80;80.50;;;;;;2021167;28;19998;-69
2022/04/22 00:01:36;;;;;;;;;;;16.80;80.70;;;;;;2021205;28;20459;-70
2022/04/22 00:02:35;;;;;;;;;;;16.80;80.60;;;;;;2020991;28;19909;-69
2022/04/22 00:03:34;;;;;;;;;;;16.80;80.70;;;;;;2021115;28;19909;-69
2022/04/22 00:04:32;;;;;;;;;;;16.80;80.70;;;;;;2020732;28;19905;-69
2022/04/22 00:05:30;;;;;;;;;;;16.80;80.60;;;;;;2020983;28;19908;-69
2022/04/22 00:06:29;;;;;;;;;;;16.80;80.70;;;;;;2021076;28;19906;-69
2022/04/22 00:07:28;;;;;;;;;;;16.80;80.70;;;;;;2020951;28;20197;-68
2022/04/22 00:08:26;;;;;;;;;;;16.80;80.70;;;;;;2020883;28;19905;-70
2022/04/22 00:09:25;;;;;;;;;;;16.80;80.80;;;;;;2021062;28;19905;-68
2022/04/22 00:10:23;;;;;;;;;;;16.80;80.90;;;;;;2021026;28;19908;-69
2022/04/22 00:11:31;;;;;;;;;;;16.80;81.00;;;;;;2020977;28;20003;-70
2022/04/22 00:12:30;;;;;;;;;;;16.90;81.20;;;;;;2020969;28;19905;-70
2022/04/22 00:13:28;;;;;;;;;;;16.80;81.00;;;;;;2020979;28;20344;-70
2022/04/22 00:14:27;;;;;;;;;;;16.80;81.00;;;;;;2020924;28;19940;-70
2022/04/22 00:15:25;;;;;;;;;;;16.80;81.10;;;;;;2020922;28;19905;-70
2022/04/22 00:16:25;;;;;;;;;;;16.80;81.00;;;;;;2020943;28;19946;-70
2022/04/22 00:17:23;;;;;;;;;;;16.80;81.10;;;;;;2020865;28;19909;-70
2022/04/22 00:18:22;;;;;;;;;;;16.80;81.10;;;;;;2021324;28;19911;-70
2022/04/22 00:19:21;;;;;;;;;;;16.80;81.10;;;;;;2020903;28;19967;-69
2022/04/22 00:20:19;;;;;;;;;;;16.80;81.00;;;;;;2020961;28;19905;-69
2022/04/22 00:21:18;;;;;;;;;;;16.80;81.00;;;;;;2020927;28;20037;-69
2022/04/22 00:22:16;;;;;;;;;;;16.80;81.00;;;;;;2020839;28;20363;-68
2022/04/22 00:23:15;;;;;;;;;;;16.80;80.70;;;;;;2028347;28;19904;-70
2022/04/22 00:24:14;;;;;;;;;;;16.80;80.50;;;;;;2028332;28;19911;-70
2022/04/22 00:25:13;;;;;;;;;;;16.80;80.40;;;;;;2021377;28;19954;-69
2022/04/22 00:26:12;;;;;;;;;;;16.80;80.40;;;;;;2020903;28;19904;-70
2022/04/22 00:27:10;;;;;;;;;;;16.80;80.50;;;;;;2020795;28;19909;-69
2022/04/22 00:28:08;;;;;;;;;;;16.80;80.50;;;;;;2020905;28;19924;-70
2022/04/22 00:29:07;;;;;;;;;;;16.80;80.50;;;;;;2020297;28;20006;-69
2022/04/22 00:30:07;;;;;;;;;;;16.80;80.80;;;;;;2020927;28;19905;-70
2022/04/22 00:31:05;;;;;;;;;;;16.80;80.90;;;;;;2028212;28;20355;-69
2022/04/22 00:32:04;;;;;;;;;;;16.80;81.00;;;;;;2028392;28;19905;-70
2022/04/22 00:33:04;;;;;;;;;;;16.80;80.90;;;;;;2021217;28;19973;-70
2022/04/22 00:34:02;;;;;;;;;;;16.80;80.90;;;;;;2020186;28;19904;-69
2022/04/22 00:35:02;;;;;;;;;;;16.80;80.90;;;;;;2020547;28;19962;-70
2022/04/22 00:36:00;;;;;;;;;;;16.80;81.00;;;;;;2021397;28;19908;-69
2022/04/22 00:36:58;;;;;;;;;;;16.80;81.00;;;;;;2021519;28;19908;-70
2022/04/22 00:37:58;;;;;;;;;;;16.80;81.00;;;;;;2021772;28;20000;-68
2022/04/22 00:38:56;;;;;;;;;;;16.80;81.00;;;;;;2028976;28;19904;-70
2022/04/22 00:39:55;;;;;;;;;;;16.80;81.00;;;;;;2028990;28;19904;-69
2022/04/22 00:40:55;;;;;;;;;;;16.80;81.00;;;;;;2021554;28;19909;-70
2022/04/22 00:41:53;;;;;;;;;;;16.80;81.00;;;;;;2020858;28;19905;-70
2022/04/22 00:42:52;;;;;;;;;;;16.80;80.90;;;;;;2021240;28;19912;-70
2022/04/22 00:43:50;;;;;;;;;;;16.80;80.90;;;;;;2020196;28;20367;-71
2022/04/22 00:44:49;;;;;;;;;;;16.80;81.00;;;;;;2020482;28;19904;-69
2022/04/22 00:45:47;;;;;;;;;;;16.80;81.00;;;;;;2020764;28;20275;-68
2022/04/22 00:46:46;;;;;;;;;;;16.80;81.00;;;;;;2020879;28;19911;-70
2022/04/22 00:47:44;;;;;;;;;;;16.80;80.90;;;;;;2020861;28;20375;-69
2022/04/22 00:48:43;;;;;;;;;;;16.80;80.60;;;;;;2020781;28;19912;-69
2022/04/22 00:49:41;;;;;;;;;;;16.80;80.90;;;;;;2028138;28;19904;-69
2022/04/22 00:50:40;;;;;;;;;;;16.80;81.00;;;;;;2028300;28;19995;-70
2022/04/22 00:51:39;;;;;;;;;;;16.80;80.80;;;;;;2021182;28;20351;-69
2022/04/22 00:52:37;;;;;;;;;;;16.80;80.90;;;;;;2020755;28;19909;-69
2022/04/22 00:53:36;;;;;;;;;;;16.80;80.80;;;;;;2020665;28;19904;-69
2022/04/22 00:54:34;;;;;;;;;;;16.80;80.80;;;;;;2020688;28;20374;-68
2022/04/22 00:55:34;;;;;;;;;;;16.80;80.90;;;;;;2020648;28;19952;-71
2022/04/22 00:56:33;;;;;;;;;;;16.70;80.80;;;;;;2020695;28;20387;-69
2022/04/22 00:57:32;;;;;;;;;;;16.80;80.80;;;;;;2020740;28;19927;-69
2022/04/22 00:58:30;;;;;;;;;;;16.70;80.80;;;;;;2020757;28;20331;-70
2022/04/22 00:59:30;;;;;;;;;;;16.80;80.80;;;;;;2020658;28;19905;-69
2022/04/22 01:00:29;;;;;;;;;;;16.70;80.70;;;;;;2020694;28;19904;-69
2022/04/22 01:01:29;;;;;;;;;;;16.70;80.70;;;;;;2020637;28;19912;-69
2022/04/22 01:02:27;;;;;;;;;;;16.70;80.80;;;;;;2028037;28;19908;-69
2022/04/22 01:03:26;;;;;;;;;;;16.70;80.80;;;;;;2028153;28;19904;-69
2022/04/22 01:09:47;;;;;;;;;;;16.70;80.50;;;;;;2020900;28;20316;-70
2022/04/22 01:10:45;;;;;;;;;;;16.70;80.50;;;;;;2020801;28;20402;-70
2022/04/22 01:11:44;;;;;;;;;;;16.70;80.60;;;;;;2020710;28;19955;-71
2022/04/22 01:12:43;;;;;;;;;;;16.70;80.50;;;;;;2020713;28;19950;-69
2022/04/22 01:13:41;;;;;;;;;;;16.70;80.50;;;;;;2020711;28;20267;-71
2022/04/22 01:14:41;;;;;;;;;;;16.70;80.40;;;;;;2020637;28;19984;-71
2022/04/22 01:15:40;;;;;;;;;;;16.70;80.50;;;;;;2020759;28;20377;-69
2022/04/22 01:16:38;;;;;;;;;;;17.00;80.80;;;;;;2020458;28;19974;-70
2022/04/22 01:17:38;;;;;;;;;;;16.70;80.50;;;;;;2020695;28;20352;-70
2022/04/22 01:18:37;;;;;;;;;;;16.70;80.50;;;;;;2020732;28;20374;-70
2022/04/22 01:19:35;;;;;;;;;;;16.70;80.40;;;;;;2020700;28;19928;-69
2022/04/22 01:20:34;;;;;;;;;;;16.70;80.40;;;;;;2020662;28;19905;-69
2022/04/22 01:21:32;;;;;;;;;;;16.70;80.40;;;;;;2020638;28;20319;-70
2022/04/22 01:22:30;;;;;;;;;;;16.70;80.30;;;;;;2020702;28;19912;-69
2022/04/22 01:23:29;;;;;;;;;;;16.70;80.40;;;;;;2020629;28;19905;-70
2022/04/22 01:24:28;;;;;;;;;;;16.70;80.40;;;;;;2020519;28;19966;-69
2022/04/22 01:25:26;;;;;;;;;;;16.70;80.40;;;;;;2027956;28;19956;-69
2022/04/22 01:26:25;;;;;;;;;;;16.70;80.30;;;;;;2027984;28;19944;-69
2022/04/22 01:27:25;;;;;;;;;;;16.70;80.40;;;;;;2021106;28;19905;-71
2022/04/22 01:28:24;;;;;;;;;;;16.70;80.50;;;;;;2020607;28;19905;-69
2022/04/22 01:29:23;;;;;;;;;;;16.70;80.50;;;;;;2020702;28;20393;-69
2022/04/22 01:30:22;;;;;;;;;;;16.70;80.60;;;;;;2020659;28;19908;-69
2022/04/22 01:31:21;;;;;;;;;;;16.70;80.60;;;;;;2020735;28;19955;-70
2022/04/22 01:32:20;;;;;;;;;;;16.70;80.40;;;;;;2019892;28;20371;-70
2022/04/22 01:33:18;;;;;;;;;;;16.70;80.50;;;;;;2020079;28;20011;-70
2022/04/22 01:34:17;;;;;;;;;;;16.70;80.60;;;;;;2027315;28;19908;-71
2022/04/22 01:35:15;;;;;;;;;;;16.70;80.40;;;;;;2028018;28;19953;-69
2022/04/22 01:36:15;;;;;;;;;;;16.70;80.50;;;;;;2021099;28;19947;-68
2022/04/22 01:37:14;;;;;;;;;;;16.70;80.50;;;;;;2020398;28;20034;-70
2022/04/22 01:38:12;;;;;;;;;;;16.70;80.50;;;;;;2020556;28;19908;-69
2022/04/22 01:39:11;;;;;;;;;;;16.70;80.40;;;;;;2020661;28;19904;-69
2022/04/22 01:40:10;;;;;;;;;;;16.70;80.50;;;;;;2021096;28;19944;-69
2022/04/22 01:41:08;;;;;;;;;;;16.70;80.50;;;;;;2021424;28;20346;-68
2022/04/22 01:42:07;;;;;;;;;;;16.70;80.50;;;;;;2021485;28;20490;-69
2022/04/22 01:43:05;;;;;;;;;;;16.70;80.50;;;;;;2022143;28;19905;-70
2022/04/22 01:44:04;;;;;;;;;;;16.70;80.40;;;;;;2022102;28;19905;-69
2022/04/22 01:45:04;;;;;;;;;;;16.70;80.60;;;;;;2022070;28;20357;-69
2022/04/22 01:46:02;;;;;;;;;;;16.70;80.50;;;;;;2022031;28;19940;-69
2022/04/22 01:47:02;;;;;;;;;;;16.70;80.50;;;;;;2021984;28;19905;-69
2022/04/22 01:48:00;;;;;;;;;;;16.70;80.50;;;;;;2022100;28;19955;-69
2022/04/22 01:48:59;;;;;;;;;;;16.70;80.50;;;;;;2022197;28;20267;-69
2022/04/22 01:49:57;;;;;;;;;;;16.70;80.40;;;;;;2022104;28;19935;-69
2022/04/22 01:50:56;;;;;;;;;;;16.70;80.50;;;;;;2022050;28;20291;-69
2022/04/22 01:51:55;;;;;;;;;;;16.70;80.50;;;;;;2022188;28;19932;-69
2022/04/22 01:52:53;;;;;;;;;;;16.70;80.40;;;;;;2021960;28;19943;-69
2022/04/22 01:53:51;;;;;;;;;;;16.70;80.40;;;;;;2022248;28;20076;-69
2022/04/22 01:54:55;;;;;;;;;;;16.70;80.40;;;;;;2022128;28;19974;-69
2022/04/22 01:55:53;;;;;;;;;;;16.70;80.40;;;;;;2022046;28;19939;-68
2022/04/22 01:56:51;;;;;;;;;;;16.70;80.40;;;;;;2021915;28;19919;-69
2022/04/22 01:57:50;;;;;;;;;;;16.70;80.40;;;;;;2021968;28;19995;-68
2022/04/22 01:58:48;;;;;;;;;;;16.70;80.40;;;;;;2022012;28;19905;-69
2022/04/22 01:59:48;;;;;;;;;;;16.70;80.40;;;;;;2021991;28;19995;-69
2022/04/22 02:00:46;;;;;;;;;;;16.70;80.40;;;;;;2021985;28;19909;-69
2022/04/22 02:01:45;;;;;;;;;;;16.70;80.30;;;;;;2021913;28;19936;-69
2022/04/22 02:02:43;;;;;;;;;;;16.70;80.40;;;;;;2022006;28;19912;-69
2022/04/22 02:03:41;;;;;;;;;;;16.60;80.20;;;;;;2021967;28;20216;-67
2022/04/22 02:04:40;;;;;;;;;;;16.70;80.40;;;;;;2021936;28;19904;-70
2022/04/22 02:05:40;;;;;;;;;;;16.60;80.40;;;;;;2021955;28;19904;-68
2022/04/22 02:06:38;;;;;;;;;;;16.70;80.40;;;;;;2021968;28;19912;-71
2022/04/22 02:07:38;;;;;;;;;;;16.70;80.40;;;;;;2022095;28;19955;-69
2022/04/22 02:08:37;;;;;;;;;;;16.70;80.60;;;;;;2021999;28;19905;-69
2022/04/22 02:09:35;;;;;;;;;;;16.70;80.40;;;;;;2021996;28;20267;-69
2022/04/22 02:10:34;;;;;;;;;;;16.60;80.20;;;;;;2021932;28;20331;-69
2022/04/22 02:11:32;;;;;;;;;;;16.60;80.30;;;;;;2021886;28;20348;-69
2022/04/22 02:12:30;;;;;;;;;;;16.70;80.20;;;;;;2022006;28;19905;-69
2022/04/22 02:13:29;;;;;;;;;;;16.70;80.00;;;;;;2021976;28;20433;-69
2022/04/22 02:14:27;;;;;;;;;;;16.60;79.90;;;;;;2021851;28;19951;-68
2022/04/22 02:15:27;;;;;;;;;;;16.60;80.00;;;;;;2022047;28;19908;-69
2022/04/22 02:16:25;;;;;;;;;;;16.60;80.00;;;;;;2021858;28;19904;-68
2022/04/22 02:17:23;;;;;;;;;;;16.60;80.00;;;;;;2021941;28;19908;-69
2022/04/22 02:18:22;;;;;;;;;;;16.70;80.80;;;;;;2021879;28;19951;-68
2022/04/22 02:19:20;;;;;;;;;;;16.70;80.10;;;;;;2021826;28;19904;-69
2022/04/22 02:20:19;;;;;;;;;;;16.60;80.00;;;;;;2022051;28;19911;-69
2022/04/22 02:21:17;;;;;;;;;;;16.70;80.10;;;;;;2021865;28;19912;-70
2022/04/22 02:22:16;;;;;;;;;;;16.60;80.10;;;;;;2021987;28;20235;-70
2022/04/22 02:23:14;;;;;;;;;;;16.70;80.10;;;;;;2021820;28;19972;-69
2022/04/22 02:24:13;;;;;;;;;;;16.60;80.00;;;;;;2021815;28;20418;-69
2022/04/22 02:25:11;;;;;;;;;;;16.60;80.00;;;;;;2021874;28;19967;-69
2022/04/22 02:26:09;;;;;;;;;;;16.60;80.10;;;;;;2021876;28;19904;-69
2022/04/22 02:28:35;;;;;;;;;;;16.60;80.00;;;;;;2021859;28;19999;-69
2022/04/22 02:29:33;;;;;;;;;;;16.60;80.10;;;;;;2021783;28;20360;-69
2022/04/22 02:30:31;;;;;;;;;;;16.60;80.10;;;;;;2021725;28;19905;-69
2022/04/22 02:31:30;;;;;;;;;;;16.60;80.10;;;;;;2021741;28;19982;-68
2022/04/22 02:32:28;;;;;;;;;;;16.60;80.20;;;;;;2021758;28;19904;-69
2022/04/22 02:33:27;;;;;;;;;;;16.60;80.20;;;;;;2021760;28;19908;-69
2022/04/22 02:34:25;;;;;;;;;;;16.60;80.20;;;;;;2021650;28;19910;-71
2022/04/22 02:35:24;;;;;;;;;;;16.60;80.30;;;;;;2021883;28;19905;-68
2022/04/22 02:36:22;;;;;;;;;;;16.60;80.10;;;;;;2021840;28;20314;-70
2022/04/22 02:37:21;;;;;;;;;;;16.60;80.20;;;;;;2021745;28;19984;-69
2022/04/22 02:38:19;;;;;;;;;;;16.60;80.30;;;;;;2021726;28;19926;-68
2022/04/22 02:39:18;;;;;;;;;;;16.60;80.20;;;;;;2021753;28;19913;-70
2022/04/22 02:45:28;;;;;;;;;;;16.60;80.30;;;;;;2021624;28;20340;-70
2022/04/22 02:46:29;;;;;;;;;;;16.60;80.30;;;;;;2012929;28;19919;-69
2022/04/22 02:47:28;;;;;;;;;;;16.60;80.30;;;;;;2013315;28;20300;-69
2022/04/22 02:48:26;;;;;;;;;;;16.60;80.20;;;;;;2021485;28;19905;-69
2022/04/22 02:49:25;;;;;;;;;;;16.60;80.30;;;;;;2021711;28;19904;-69
2022/04/22 02:50:23;;;;;;;;;;;16.60;80.20;;;;;;2021584;28;19904;-70
2022/04/22 02:51:22;;;;;;;;;;;16.60;80.30;;;;;;2021526;28;19994;-70
2022/04/22 02:52:20;;;;;;;;;;;16.60;80.20;;;;;;2021261;28;19905;-70
2022/04/22 02:53:19;;;;;;;;;;;16.60;80.20;;;;;;2021575;28;19911;-70
2022/04/22 02:54:18;;;;;;;;;;;16.60;80.20;;;;;;2021567;28;20286;-69
2022/04/22 02:55:16;;;;;;;;;;;16.60;80.20;;;;;;2021451;28;19912;-68
2022/04/22 02:56:16;;;;;;;;;;;16.70;80.30;;;;;;2021548;28;19931;-69
2022/04/22 02:57:15;;;;;;;;;;;16.60;80.20;;;;;;2021456;28;19916;-69
2022/04/22 02:58:13;;;;;;;;;;;16.60;80.20;;;;;;2021408;28;19911;-69
2022/04/22 02:59:11;;;;;;;;;;;16.60;80.20;;;;;;2021589;28;19948;-69
2022/04/22 03:00:13;;;;;;;;;;;16.60;80.10;;;;;;2021369;28;19909;-70
2022/04/22 03:01:13;;;;;;;;;;;16.60;80.10;;;;;;2021498;28;19912;-70
2022/04/22 03:02:11;;;;;;;;;;;16.50;80.00;;;;;;2021532;28;20268;-69
2022/04/22 03:03:10;;;;;;;;;;;16.60;80.10;;;;;;2021498;28;19905;-70
2022/04/22 03:04:09;;;;;;;;;;;16.60;80.00;;;;;;2021429;28;19908;-70
2022/04/22 03:05:08;;;;;;;;;;;16.60;80.10;;;;;;2021255;28;20371;-69
2022/04/22 03:06:07;;;;;;;;;;;16.60;80.10;;;;;;2021234;28;20007;-69
2022/04/22 03:07:06;;;;;;;;;;;16.60;80.10;;;;;;2021340;28;20261;-68
2022/04/22 03:08:06;;;;;;;;;;;16.60;80.00;;;;;;2021612;28;20285;-68
2022/04/22 03:09:04;;;;;;;;;;;16.60;80.00;;;;;;2021367;28;19908;-71
2022/04/22 03:10:04;;;;;;;;;;;16.60;80.10;;;;;;2021409;28;20004;-68
2022/04/22 03:11:03;;;;;;;;;;;16.60;80.10;;;;;;2021465;28;20000;-69
2022/04/22 03:12:02;;;;;;;;;;;16.60;80.10;;;;;;2021398;28;19975;-69
2022/04/22 03:13:00;;;;;;;;;;;16.60;80.10;;;;;;2021479;28;19909;-69
2022/04/22 03:13:58;;;;;;;;;;;16.60;80.00;;;;;;2021639;28;19932;-70
2022/04/22 03:14:57;;;;;;;;;;;16.60;79.80;;;;;;2021571;28;19916;-69
2022/04/22 03:15:56;;;;;;;;;;;16.60;79.80;;;;;;2021454;28;20007;-69
2022/04/22 03:16:55;;;;;;;;;;;16.60;79.90;;;;;;2021248;28;20271;-68
2022/04/22 03:17:53;;;;;;;;;;;16.60;79.90;;;;;;2021619;28;19905;-69
2022/04/22 03:18:52;;;;;;;;;;;16.50;79.80;;;;;;2021426;28;20002;-69
2022/04/22 03:19:50;;;;;;;;;;;16.60;79.90;;;;;;2021497;28;19954;-69
2022/04/22 03:20:49;;;;;;;;;;;16.40;79.70;;;;;;2021367;28;19905;-69
2022/04/22 03:21:47;;;;;;;;;;;16.60;79.90;;;;;;2021394;28;19912;-68
2022/04/22 03:22:46;;;;;;;;;;;16.60;79.70;;;;;;2021491;28;19984;-69
2022/04/22 03:23:44;;;;;;;;;;;16.60;79.60;;;;;;2021883;28;19971;-69
2022/04/22 03:24:43;;;;;;;;;;;16.60;79.60;;;;;;2022029;28;19961;-68
2022/04/22 03:25:41;;;;;;;;;;;16.50;79.40;;;;;;2021605;28;19959;-68
2022/04/22 03:26:40;;;;;;;;;;;16.60;79.50;;;;;;2021880;28;20418;-68
2022/04/22 03:27:38;;;;;;;;;;;16.60;79.60;;;;;;2022136;28;20007;-68
2022/04/22 03:28:37;;;;;;;;;;;16.50;79.40;;;;;;2021529;28;20214;-69
2022/04/22 03:29:35;;;;;;;;;;;16.60;79.50;;;;;;2021674;28;19908;-68
2022/04/22 03:30:37;;;;;;;;;;;16.50;79.30;;;;;;2021552;28;20327;-69
2022/04/22 03:31:36;;;;;;;;;;;16.50;79.40;;;;;;2021681;28;19904;-69
2022/04/22 03:32:34;;;;;;;;;;;16.50;79.40;;;;;;2021404;28;19963;-70
2022/04/22 03:33:32;;;;;;;;;;;16.60;79.60;;;;;;2021264;28;19953;-69
2022/04/22 03:34:32;;;;;;;;;;;16.50;79.30;;;;;;2021247;28;20360;-69
2022/04/22 03:35:31;;;;;;;;;;;16.50;79.30;;;;;;2028429;28;19911;-69
2022/04/22 03:36:29;;;;;;;;;;;16.50;79.40;;;;;;2028286;28;19905;-70
2022/04/22 03:37:28;;;;;;;;;;;16.60;79.50;;;;;;2021702;28;19909;-69
2022/04/22 03:38:27;;;;;;;;;;;16.50;79.20;;;;;;2021319;28;19905;-68
2022/04/22 03:39:26;;;;;;;;;;;16.50;79.20;;;;;;2021331;28;20267;-69
2022/04/22 03:40:24;;;;;;;;;;;16.50;79.40;;;;;;2021252;28;19956;-68
2022/04/22 03:41:23;;;;;;;;;;;16.50;79.40;;;;;;2021289;28;19990;-68
2022/04/22 03:42:21;;;;;;;;;;;16.50;79.40;;;;;;2021225;28;19904;-69
2022/04/22 03:43:21;;;;;;;;;;;16.60;79.50;;;;;;2021130;28;20383;-69
2022/04/22 03:44:19;;;;;;;;;;;16.50;79.60;;;;;;2021306;28;19905;-69
2022/04/22 03:45:17;;;;;;;;;;;16.50;79.50;;;;;;2020479;28;19909;-69
2022/04/22 03:46:16;;;;;;;;;;;16.50;79.60;;;;;;2020467;28;19929;-69
2022/04/22 03:47:14;;;;;;;;;;;16.50;79.60;;;;;;2021322;28;19912;-68
2022/04/22 03:48:16;;;;;;;;;;;16.50;79.60;;;;;;2021156;28;19912;-68
2022/04/22 03:49:14;;;;;;;;;;;16.50;79.60;;;;;;2021315;28;19905;-69
2022/04/22 03:50:13;;;;;;;;;;;16.50;79.50;;;;;;2021204;28;19931;-69
2022/04/22 03:51:11;;;;;;;;;;;16.50;79.40;;;;;;2021146;28;19957;-69
2022/04/22 03:52:09;;;;;;;;;;;16.50;79.40;;;;;;2021158;28;19989;-69
2022/04/22 03:53:17;;;;;;;;;;;16.50;79.40;;;;;;2021065;28;20416;-68
2022/04/22 03:54:22;;;;;;;;;;;16.50;79.50;;;;;;2021294;28;19916;-69
2022/04/22 03:55:20;;;;;;;;;;;16.50;79.40;;;;;;2021058;28;19920;-69
2022/04/22 03:58:54;;;;;;;;;;;16.50;79.40;;;;;;2021250;28;19904;-69
2022/04/22 03:59:54;;;;;;;;;;;16.50;79.60;;;;;;2021176;28;19905;-69
2022/04/22 04:00:52;;;;;;;;;;;16.50;79.60;;;;;;2021078;28;20275;-69
2022/04/22 04:01:51;;;;;;;;;;;16.50;79.50;;;;;;2021014;28;19905;-69
2022/04/22 04:02:49;;;;;;;;;;;16.50;79.50;;;;;;2021086;28;19905;-71
2022/04/22 04:03:48;;;;;;;;;;;16.50;79.50;;;;;;2020399;28;19959;-68
2022/04/22 04:04:48;;;;;;;;;;;16.50;79.50;;;;;;2021125;28;19959;-70
2022/04/22 04:05:50;;;;;;;;;;;16.50;79.50;;;;;;2021110;28;19905;-69
2022/04/22 04:06:48;;;;;;;;;;;16.50;79.40;;;;;;2021020;28;20115;-68
2022/04/22 04:07:47;;;;;;;;;;;16.50;79.40;;;;;;2020989;28;20584;-69
2022/04/22 04:15:57;;;;;;;;;;;16.50;79.40;;;;;;2021376;28;19905;-70
2022/04/22 04:16:11;;;;;;;;;;;16.50;79.40;;;;;;2021118;28;19905;-68
2022/04/22 04:17:10;;;;;;;;;;;16.50;79.40;;;;;;2020763;28;20360;-68
2022/04/22 04:18:08;;;;;;;;;;;16.50;79.40;;;;;;2020964;28;19915;-69
2022/04/22 04:23:17;;;;;;;;;;;16.50;79.40;;;;;;2021032;28;19909;-68
2022/04/22 04:24:16;;;;;;;;;;;16.50;79.40;;;;;;2020915;28;20379;-68
2022/04/22 04:25:14;;;;;;;;;;;16.50;79.40;;;;;;2020964;28;19904;-68
2022/04/22 04:26:15;;;;;;;;;;;16.50;79.40;;;;;;2020830;28;19904;-68
2022/04/22 04:27:13;;;;;;;;;;;16.50;79.40;;;;;;2020985;28;19905;-69
2022/04/22 04:28:13;;;;;;;;;;;16.50;79.40;;;;;;2020832;28;20272;-69
2022/04/22 04:29:13;;;;;;;;;;;16.50;79.30;;;;;;2020825;28;19905;-69
2022/04/22 04:30:12;;;;;;;;;;;16.50;79.40;;;;;;2020922;28;20307;-69
2022/04/22 04:31:13;;;;;;;;;;;16.40;79.20;;;;;;2020879;28;19995;-68
2022/04/22 04:32:12;;;;;;;;;;;16.50;79.20;;;;;;2020917;28;19927;-69
2022/04/22 04:33:10;;;;;;;;;;;16.50;79.20;;;;;;2020897;28;19905;-70
2022/04/22 04:34:09;;;;;;;;;;;16.50;79.20;;;;;;2020888;28;19991;-69
2022/04/22 04:35:07;;;;;;;;;;;16.50;79.20;;;;;;2020915;28;20300;-68
2022/04/22 04:36:09;;;;;;;;;;;16.50;79.20;;;;;;2020900;28;19912;-69
2022/04/22 04:37:08;;;;;;;;;;;16.50;79.30;;;;;;2020659;28;19919;-70
2022/04/22 04:38:07;;;;;;;;;;;16.50;79.30;;;;;;2020879;28;20295;-68
2022/04/22 04:39:06;;;;;;;;;;;16.50;79.20;;;;;;2020738;28;19904;-69
2022/04/22 04:40:05;;;;;;;;;;;16.50;79.20;;;;;;2020799;28;19951;-68
2022/04/22 04:41:03;;;;;;;;;;;16.50;79.20;;;;;;2020215;28;20383;-68
2022/04/22 04:42:02;;;;;;;;;;;16.50;79.20;;;;;;2020241;28;19907;-70
2022/04/22 04:43:01;;;;;;;;;;;16.50;79.20;;;;;;2020822;28;19909;-69
2022/04/22 04:44:00;;;;;;;;;;;16.50;79.20;;;;;;2020907;28;19971;-70
2022/04/22 04:44:58;;;;;;;;;;;16.50;79.20;;;;;;2021024;28;19944;-70
2022/04/22 04:45:57;;;;;;;;;;;16.50;79.20;;;;;;2020775;28;20068;-69
2022/04/22 04:46:57;;;;;;;;;;;16.50;79.20;;;;;;2020716;28;20389;-69
2022/04/22 04:47:55;;;;;;;;;;;16.50;79.20;;;;;;2020852;28;19912;-69
2022/04/22 04:48:56;;;;;;;;;;;16.50;79.20;;;;;;2020765;28;19912;-69
2022/04/22 04:49:54;;;;;;;;;;;16.50;79.20;;;;;;2020748;28;19983;-69
2022/04/22 04:50:55;;;;;;;;;;;16.50;79.20;;;;;;2020763;28;19904;-70
2022/04/22 04:51:53;;;;;;;;;;;16.50;79.20;;;;;;2020740;28;19905;-68
2022/04/22 04:52:52;;;;;;;;;;;16.50;79.20;;;;;;2020827;28;19912;-69
2022/04/22 04:53:50;;;;;;;;;;;16.50;79.00;;;;;;2020668;28;20367;-69
2022/04/22 04:54:50;;;;;;;;;;;16.50;78.90;;;;;;2027981;28;19935;-68
2022/04/22 04:55:48;;;;;;;;;;;16.50;78.80;;;;;;2028053;28;19927;-69
2022/04/22 04:56:47;;;;;;;;;;;16.50;78.80;;;;;;2020953;28;19947;-69
2022/04/22 04:57:45;;;;;;;;;;;16.50;78.80;;;;;;2020786;28;19905;-69
2022/04/22 04:58:43;;;;;;;;;;;16.50;78.90;;;;;;2020809;28;19914;-70
2022/04/22 04:59:42;;;;;;;;;;;16.50;78.90;;;;;;2020563;28;19911;-69
2022/04/22 05:00:40;;;;;;;;;;;16.50;78.90;;;;;;2020521;28;19911;-70
2022/04/22 05:01:39;;;;;;;;;;;16.50;78.70;;;;;;2020889;28;19912;-69
2022/04/22 05:02:38;;;;;;;;;;;16.50;78.70;;;;;;2020947;28;19952;-69
2022/04/22 05:03:36;;;;;;;;;;;16.50;78.70;;;;;;2020658;28;19928;-69
2022/04/22 05:04:35;;;;;;;;;;;16.50;78.70;;;;;;2027976;28;20494;-71
2022/04/22 05:05:33;;;;;;;;;;;16.50;78.70;;;;;;2028234;28;19904;-69
2022/04/22 05:06:31;;;;;;;;;;;16.50;78.70;;;;;;2021130;28;19908;-68
2022/04/22 05:07:33;;;;;;;;;;;16.50;78.70;;;;;;2020676;28;19948;-69
2022/04/22 05:08:31;;;;;;;;;;;16.50;78.70;;;;;;2020657;28;20289;-70
2022/04/22 05:09:30;;;;;;;;;;;16.50;78.80;;;;;;2020724;28;19928;-69
2022/04/22 05:10:29;;;;;;;;;;;16.50;78.70;;;;;;2020591;28;19911;-69
2022/04/22 05:11:28;;;;;;;;;;;16.50;78.70;;;;;;2020711;28;20440;-69
2022/04/22 05:12:27;;;;;;;;;;;16.50;78.80;;;;;;2020675;28;19904;-68
2022/04/22 05:13:25;;;;;;;;;;;16.50;78.70;;;;;;2020634;28;19905;-68
2022/04/22 05:14:25;;;;;;;;;;;16.60;78.80;;;;;;2027947;28;19909;-69
2022/04/22 05:15:23;;;;;;;;;;;16.50;78.70;;;;;;2021203;28;19943;-69
2022/04/22 05:16:22;;;;;;;;;;;16.50;78.60;;;;;;2021813;28;19905;-70
2022/04/22 05:17:20;;;;;;;;;;;16.50;78.70;;;;;;2022140;28;19978;-69
2022/04/22 05:18:19;;;;;;;;;;;16.50;78.70;;;;;;2029745;28;19908;-68
2022/04/22 05:19:19;;;;;;;;;;;16.50;78.80;;;;;;2029734;28;19908;-71
2022/04/22 05:20:19;;;;;;;;;;;16.50;78.80;;;;;;2022730;28;19927;-69
2022/04/22 05:21:18;;;;;;;;;;;16.50;78.80;;;;;;2021560;28;19909;-70
2022/04/22 05:22:17;;;;;;;;;;;16.50;78.70;;;;;;2021755;28;19950;-67
2022/04/22 05:23:15;;;;;;;;;;;16.60;78.90;;;;;;2022255;28;19912;-70
2022/04/22 05:24:14;;;;;;;;;;;16.60;78.90;;;;;;2022202;28;19905;-69
2022/04/22 05:25:13;;;;;;;;;;;16.60;79.00;;;;;;2022256;28;20303;-68
2022/04/22 05:26:12;;;;;;;;;;;16.60;79.00;;;;;;2022106;28;19904;-68
2022/04/22 05:27:11;;;;;;;;;;;16.60;79.00;;;;;;2022480;28;19905;-70
2022/04/22 05:28:09;;;;;;;;;;;16.60;78.90;;;;;;2022302;28;19905;-68
2022/04/22 05:32:36;;;;;;;;;;;16.50;78.70;;;;;;2022425;28;20356;-68
2022/04/22 05:33:05;;;;;;;;;;;16.50;78.90;;;;;;2022057;28;19904;-69
2022/04/22 05:34:04;;;;;;;;;;;16.50;78.90;;;;;;2022347;28;19904;-69
2022/04/22 05:35:05;;;;;;;;;;;16.50;78.80;;;;;;2022341;28;19905;-71
2022/04/22 05:36:04;;;;;;;;;;;16.60;79.00;;;;;;2022192;28;20084;-69
2022/04/22 05:37:03;;;;;;;;;;;16.50;78.90;;;;;;2022043;28;19915;-68
2022/04/22 05:38:03;;;;;;;;;;;16.60;78.90;;;;;;2022179;28;19904;-69
2022/04/22 05:39:07;;;;;;;;;;;16.60;78.80;;;;;;2022449;28;20280;-69
2022/04/22 05:40:06;;;;;;;;;;;16.60;78.90;;;;;;2022451;28;20351;-69
2022/04/22 05:41:04;;;;;;;;;;;16.60;78.80;;;;;;2022006;28;20260;-69
2022/04/22 05:42:03;;;;;;;;;;;16.60;78.80;;;;;;2021568;28;20099;-68
2022/04/22 05:43:02;;;;;;;;;;;16.60;78.90;;;;;;2022353;28;19904;-68
2022/04/22 05:44:04;;;;;;;;;;;16.60;78.80;;;;;;2022370;28;20280;-69
2022/04/22 05:45:02;;;;;;;;;;;16.60;78.90;;;;;;2022192;28;19951;-68
2022/04/22 05:46:00;;;;;;;;;;;16.50;78.70;;;;;;2021555;28;19912;-69
2022/04/22 05:46:59;;;;;;;;;;;16.60;78.80;;;;;;2021592;28;19989;-68
2022/04/22 05:47:57;;;;;;;;;;;16.60;78.80;;;;;;2022098;28;19909;-70
2022/04/22 05:48:56;;;;;;;;;;;16.60;78.70;;;;;;2022259;28;20385;-70
2022/04/22 05:49:54;;;;;;;;;;;16.60;78.80;;;;;;2022316;28;20011;-68
2022/04/22 05:50:53;;;;;;;;;;;16.50;78.60;;;;;;2022316;28;20264;-70
2022/04/22 05:51:52;;;;;;;;;;;16.60;78.80;;;;;;2029488;28;20006;-71
2022/04/22 05:52:52;;;;;;;;;;;16.60;78.80;;;;;;2029557;28;19912;-69
2022/04/22 05:53:50;;;;;;;;;;;16.80;79.00;;;;;;2022464;28;20417;-69
2022/04/22 05:54:49;;;;;;;;;;;16.60;78.80;;;;;;2022245;28;19905;-69
2022/04/22 05:55:47;;;;;;;;;;;16.60;78.80;;;;;;2021541;28;20395;-69
2022/04/22 05:56:46;;;;;;;;;;;16.60;78.80;;;;;;2021438;28;19965;-69
2022/04/22 05:57:45;;;;;;;;;;;16.60;78.80;;;;;;2022179;28;19905;-68
2022/04/22 05:58:44;;;;;;;;;;;16.60;78.80;;;;;;2022071;28;19911;-70
2022/04/22 05:59:42;;;;;;;;;;;16.60;78.70;;;;;;2022093;28;20411;-69
2022/04/22 06:00:41;;;;;;;;;;;16.60;78.80;;;;;;2022062;28;19904;-68
2022/04/22 06:01:39;;;;;;;;;;;16.60;78.80;;;;;;2021984;28;19904;-70
2022/04/22 06:02:41;;;;;;;;;;;16.50;78.60;;;;;;2022042;28;20423;-68
2022/04/22 06:03:39;;;;;;;;;;;16.60;78.60;;;;;;2022334;28;19911;-68
2022/04/22 06:04:37;;;;;;;;;;;16.60;78.60;;;;;;2022112;28;20003;-69
2022/04/22 06:05:36;;;;;;;;;;;16.60;78.40;;;;;;2022193;28;20008;-68
2022/04/22 06:06:34;;;;;;;;;;;16.60;78.40;;;;;;2022034;28;19905;-69
2022/04/22 06:07:33;;;;;;;;;;;16.60;78.30;;;;;;2022104;28;20062;-69
2022/04/22 06:11:06;;;;;;;;;;;16.60;78.40;;;;;;2022024;28;20360;-68
2022/04/22 06:12:05;;;;;;;;;;;16.60;78.40;;;;;;2022174;28;19991;-68
2022/04/22 06:13:04;;;;;;;;;;;16.60;78.40;;;;;;2022187;28;20268;-69